sensor_id;sensor_type;location;lat;lon;timestamp;P1;durP1;ratioP1;P2;durP2;ratioP2
12052;SDS011;6087;48.982;12.064;2023-09-19T00:02:16;3.13;;;1.48;;
12052;SDS011;6087;48.982;12.064;2023-09-19T00:04:43;2.08;;;1.15;;
12052;SDS011;6087;48.982;12.064;2023-09-19T00:07:10;2.50;;;1.40;;
12052;SDS011;6087;48.982;12.064;2023-09-19T00:09:36;5.65;;;1.40;;
12052;SDS011;6087;48.982;12.064;2023-09-19T00:12:04;3.53;;;1.20;;
12052;SDS011;6087;48.982;12.064;2023-09-19T00:14:32;1.42;;;1.33;;
12052;SDS011;6087;48.982;12.064;2023-09-19T00:17:02;1.75;;;1.40;;
12052;SDS011;6087;48.982;12.064;2023-09-19T00:19:33;1.83;;;1.20;;
12052;SDS011;6087;48.982;12.064;2023-09-19T00:22:00;2.38;;;1.58;;
12052;SDS011;6087;48.982;12.064;2023-09-19T00:24:27;1.77;;;1.20;;
12052;SDS011;6087;48.982;12.064;2023-09-19T00:26:54;2.40;;;1.50;;
12052;SDS011;6087;48.982;12.064;2023-09-19T00:29:21;1.65;;;1.35;;
12052;SDS011;6087;48.982;12.064;2023-09-19T00:31:48;2.75;;;1.10;;
12052;SDS011;6087;48.982;12.064;2023-09-19T00:34:17;2.15;;;1.40;;
12052;SDS011;6087;48.982;12.064;2023-09-19T00:36:45;1.40;;;1.30;;
12052;SDS011;6087;48.982;12.064;2023-09-19T00:39:13;2.13;;;1.67;;
12052;SDS011;6087;48.982;12.064;2023-09-19T00:41:41;1.33;;;1.10;;
12052;SDS011;6087;48.982;12.064;2023-09-19T00:44:09;3.08;;;1.73;;
12052;SDS011;6087;48.982;12.064;2023-09-19T00:46:37;2.75;;;1.50;;
12052;SDS011;6087;48.982;12.064;2023-09-19T00:49:04;2.40;;;1.30;;
12052;SDS011;6087;48.982;12.064;2023-09-19T00:51:32;2.00;;;1.48;;
12052;SDS011;6087;48.982;12.064;2023-09-19T00:54:01;4.55;;;1.35;;
12052;SDS011;6087;48.982;12.064;2023-09-19T00:56:29;1.92;;;1.30;;
12052;SDS011;6087;48.982;12.064;2023-09-19T00:58:56;3.97;;;1.92;;
12052;SDS011;6087;48.982;12.064;2023-09-19T01:01:23;1.65;;;1.23;;
12052;SDS011;6087;48.982;12.064;2023-09-19T01:03:51;2.53;;;1.58;;
12052;SDS011;6087;48.982;12.064;2023-09-19T01:06:19;3.30;;;1.55;;
12052;SDS011;6087;48.982;12.064;2023-09-19T01:08:48;1.73;;;1.35;;
12052;SDS011;6087;48.982;12.064;2023-09-19T01:11:17;2.10;;;1.38;;
12052;SDS011;6087;48.982;12.064;2023-09-19T01:13:52;1.45;;;1.23;;
12052;SDS011;6087;48.982;12.064;2023-09-19T01:16:28;3.25;;;1.38;;
12052;SDS011;6087;48.982;12.064;2023-09-19T01:22:07;2.17;;;1.55;;
12052;SDS011;6087;48.982;12.064;2023-09-19T01:27:56;4.05;;;1.50;;
12052;SDS011;6087;48.982;12.064;2023-09-19T01:30:39;1.85;;;1.23;;
12052;SDS011;6087;48.982;12.064;2023-09-19T01:33:09;2.65;;;1.55;;
12052;SDS011;6087;48.982;12.064;2023-09-19T01:35:37;3.08;;;1.67;;
12052;SDS011;6087;48.982;12.064;2023-09-19T01:38:05;2.55;;;1.63;;
12052;SDS011;6087;48.982;12.064;2023-09-19T01:40:36;1.80;;;1.50;;
12052;SDS011;6087;48.982;12.064;2023-09-19T01:43:12;3.30;;;1.63;;
12052;SDS011;6087;48.982;12.064;2023-09-19T01:45:47;2.50;;;1.55;;
12052;SDS011;6087;48.982;12.064;2023-09-19T01:48:23;2.80;;;1.48;;
12052;SDS011;6087;48.982;12.064;2023-09-19T01:50:59;5.20;;;1.92;;
12052;SDS011;6087;48.982;12.064;2023-09-19T01:53:28;2.33;;;1.33;;
12052;SDS011;6087;48.982;12.064;2023-09-19T01:56:00;1.98;;;1.45;;
12052;SDS011;6087;48.982;12.064;2023-09-19T01:58:29;1.90;;;1.70;;
12052;SDS011;6087;48.982;12.064;2023-09-19T02:01:01;2.72;;;1.90;;
12052;SDS011;6087;48.982;12.064;2023-09-19T02:03:31;3.40;;;1.25;;
12052;SDS011;6087;48.982;12.064;2023-09-19T02:06:01;2.53;;;1.33;;
12052;SDS011;6087;48.982;12.064;2023-09-19T02:08:30;1.67;;;1.33;;
12052;SDS011;6087;48.982;12.064;2023-09-19T02:10:58;1.65;;;1.45;;
12052;SDS011;6087;48.982;12.064;2023-09-19T02:13:25;2.92;;;1.52;;
12052;SDS011;6087;48.982;12.064;2023-09-19T02:15:53;1.23;;;1.13;;
12052;SDS011;6087;48.982;12.064;2023-09-19T02:18:22;2.92;;;1.48;;
12052;SDS011;6087;48.982;12.064;2023-09-19T02:20:49;3.17;;;1.52;;
12052;SDS011;6087;48.982;12.064;2023-09-19T02:23:18;3.33;;;1.50;;
12052;SDS011;6087;48.982;12.064;2023-09-19T02:25:51;2.67;;;1.52;;
12052;SDS011;6087;48.982;12.064;2023-09-19T02:28:18;2.83;;;1.40;;
12052;SDS011;6087;48.982;12.064;2023-09-19T02:30:47;3.22;;;1.20;;
12052;SDS011;6087;48.982;12.064;2023-09-19T02:33:15;2.10;;;1.25;;
12052;SDS011;6087;48.982;12.064;2023-09-19T02:35:44;3.95;;;1.90;;
12052;SDS011;6087;48.982;12.064;2023-09-19T02:38:14;1.63;;;1.25;;
12052;SDS011;6087;48.982;12.064;2023-09-19T02:40:46;3.17;;;1.70;;
12052;SDS011;6087;48.982;12.064;2023-09-19T02:43:13;2.15;;;1.42;;
12052;SDS011;6087;48.982;12.064;2023-09-19T02:45:40;4.22;;;1.65;;
12052;SDS011;6087;48.982;12.064;2023-09-19T02:48:07;2.35;;;1.67;;
12052;SDS011;6087;48.982;12.064;2023-09-19T02:50:34;2.10;;;1.90;;
12052;SDS011;6087;48.982;12.064;2023-09-19T02:53:02;4.68;;;1.90;;
12052;SDS011;6087;48.982;12.064;2023-09-19T02:55:29;2.90;;;2.13;;
12052;SDS011;6087;48.982;12.064;2023-09-19T02:57:56;2.30;;;1.58;;
12052;SDS011;6087;48.982;12.064;2023-09-19T03:00:23;1.73;;;1.30;;
12052;SDS011;6087;48.982;12.064;2023-09-19T03:02:52;1.88;;;1.67;;
12052;SDS011;6087;48.982;12.064;2023-09-19T03:05:23;2.28;;;1.70;;
12052;SDS011;6087;48.982;12.064;2023-09-19T03:07:56;1.52;;;1.42;;
12052;SDS011;6087;48.982;12.064;2023-09-19T03:10:27;1.63;;;1.45;;
12052;SDS011;6087;48.982;12.064;2023-09-19T03:12:55;3.75;;;1.40;;
12052;SDS011;6087;48.982;12.064;2023-09-19T03:15:22;3.90;;;1.67;;
12052;SDS011;6087;48.982;12.064;2023-09-19T03:17:49;1.40;;;1.30;;
12052;SDS011;6087;48.982;12.064;2023-09-19T03:20:17;4.45;;;2.03;;
12052;SDS011;6087;48.982;12.064;2023-09-19T03:22:44;1.83;;;1.50;;
12052;SDS011;6087;48.982;12.064;2023-09-19T03:25:11;2.20;;;1.77;;
12052;SDS011;6087;48.982;12.064;2023-09-19T03:27:41;3.60;;;1.60;;
12052;SDS011;6087;48.982;12.064;2023-09-19T03:30:08;4.03;;;1.75;;
12052;SDS011;6087;48.982;12.064;2023-09-19T03:32:43;2.22;;;1.85;;
12052;SDS011;6087;48.982;12.064;2023-09-19T03:35:10;2.38;;;1.80;;
12052;SDS011;6087;48.982;12.064;2023-09-19T03:37:39;3.97;;;2.03;;
12052;SDS011;6087;48.982;12.064;2023-09-19T03:40:06;3.13;;;1.83;;
12052;SDS011;6087;48.982;12.064;2023-09-19T03:42:37;3.45;;;1.52;;
12052;SDS011;6087;48.982;12.064;2023-09-19T03:45:12;7.70;;;2.25;;
12052;SDS011;6087;48.982;12.064;2023-09-19T03:47:41;4.93;;;2.03;;
12052;SDS011;6087;48.982;12.064;2023-09-19T03:50:08;2.88;;;2.20;;
12052;SDS011;6087;48.982;12.064;2023-09-19T03:52:40;2.10;;;1.65;;
12052;SDS011;6087;48.982;12.064;2023-09-19T03:55:07;2.00;;;1.73;;
12052;SDS011;6087;48.982;12.064;2023-09-19T03:57:34;2.92;;;1.83;;
12052;SDS011;6087;48.982;12.064;2023-09-19T04:00:03;2.65;;;1.70;;
12052;SDS011;6087;48.982;12.064;2023-09-19T04:02:36;2.50;;;1.65;;
12052;SDS011;6087;48.982;12.064;2023-09-19T04:05:03;3.72;;;1.95;;
12052;SDS011;6087;48.982;12.064;2023-09-19T04:07:30;3.20;;;1.88;;
12052;SDS011;6087;48.982;12.064;2023-09-19T04:09:58;3.20;;;1.75;;
12052;SDS011;6087;48.982;12.064;2023-09-19T04:12:24;3.22;;;1.70;;
12052;SDS011;6087;48.982;12.064;2023-09-19T04:14:52;3.70;;;1.92;;
12052;SDS011;6087;48.982;12.064;2023-09-19T04:17:20;1.58;;;1.48;;
12052;SDS011;6087;48.982;12.064;2023-09-19T04:19:48;1.45;;;1.23;;
12052;SDS011;6087;48.982;12.064;2023-09-19T04:22:15;2.40;;;1.88;;
12052;SDS011;6087;48.982;12.064;2023-09-19T04:24:42;5.88;;;1.52;;
12052;SDS011;6087;48.982;12.064;2023-09-19T04:27:09;1.60;;;1.30;;
12052;SDS011;6087;48.982;12.064;2023-09-19T04:29:37;2.20;;;1.83;;
12052;SDS011;6087;48.982;12.064;2023-09-19T04:32:04;2.10;;;1.50;;
12052;SDS011;6087;48.982;12.064;2023-09-19T04:34:33;2.47;;;1.50;;
12052;SDS011;6087;48.982;12.064;2023-09-19T04:37:00;1.42;;;1.33;;
12052;SDS011;6087;48.982;12.064;2023-09-19T04:39:28;3.90;;;1.58;;
12052;SDS011;6087;48.982;12.064;2023-09-19T04:41:55;1.38;;;1.27;;
12052;SDS011;6087;48.982;12.064;2023-09-19T04:44:23;3.03;;;1.77;;
12052;SDS011;6087;48.982;12.064;2023-09-19T04:46:50;1.80;;;1.45;;
12052;SDS011;6087;48.982;12.064;2023-09-19T04:49:17;1.55;;;1.45;;
12052;SDS011;6087;48.982;12.064;2023-09-19T04:51:46;2.10;;;1.25;;
12052;SDS011;6087;48.982;12.064;2023-09-19T04:54:12;2.85;;;1.38;;
12052;SDS011;6087;48.982;12.064;2023-09-19T04:56:40;2.17;;;1.17;;
12052;SDS011;6087;48.982;12.064;2023-09-19T04:59:07;1.83;;;1.52;;
12052;SDS011;6087;48.982;12.064;2023-09-19T05:01:35;3.47;;;1.30;;
12052;SDS011;6087;48.982;12.064;2023-09-19T05:04:05;1.10;;;1.02;;
12052;SDS011;6087;48.982;12.064;2023-09-19T05:06:32;3.42;;;1.42;;
12052;SDS011;6087;48.982;12.064;2023-09-19T05:09:02;2.15;;;1.48;;
12052;SDS011;6087;48.982;12.064;2023-09-19T05:11:30;3.20;;;1.30;;
12052;SDS011;6087;48.982;12.064;2023-09-19T05:14:04;1.77;;;1.08;;
12052;SDS011;6087;48.982;12.064;2023-09-19T05:16:31;1.88;;;1.33;;
12052;SDS011;6087;48.982;12.064;2023-09-19T05:19:01;2.03;;;1.20;;
12052;SDS011;6087;48.982;12.064;2023-09-19T05:21:28;2.72;;;1.08;;
12052;SDS011;6087;48.982;12.064;2023-09-19T05:23:56;1.77;;;0.98;;
12052;SDS011;6087;48.982;12.064;2023-09-19T05:26:24;3.42;;;1.20;;
12052;SDS011;6087;48.982;12.064;2023-09-19T05:28:51;2.53;;;1.08;;
12052;SDS011;6087;48.982;12.064;2023-09-19T05:31:19;3.42;;;0.95;;
12052;SDS011;6087;48.982;12.064;2023-09-19T05:33:45;2.97;;;1.42;;
12052;SDS011;6087;48.982;12.064;2023-09-19T05:36:12;1.25;;;1.00;;
12052;SDS011;6087;48.982;12.064;2023-09-19T05:38:41;1.92;;;1.20;;
12052;SDS011;6087;48.982;12.064;2023-09-19T05:41:09;1.23;;;1.02;;
12052;SDS011;6087;48.982;12.064;2023-09-19T05:43:40;1.40;;;0.80;;
12052;SDS011;6087;48.982;12.064;2023-09-19T05:46:07;1.48;;;0.80;;
12052;SDS011;6087;48.982;12.064;2023-09-19T05:48:34;1.08;;;0.98;;
12052;SDS011;6087;48.982;12.064;2023-09-19T05:51:01;2.22;;;1.05;;
12052;SDS011;6087;48.982;12.064;2023-09-19T05:53:28;1.00;;;0.90;;
12052;SDS011;6087;48.982;12.064;2023-09-19T05:55:55;1.40;;;0.82;;
12052;SDS011;6087;48.982;12.064;2023-09-19T05:58:22;0.98;;;0.98;;
12052;SDS011;6087;48.982;12.064;2023-09-19T06:00:52;1.10;;;0.90;;
12052;SDS011;6087;48.982;12.064;2023-09-19T06:03:22;1.15;;;0.82;;
12052;SDS011;6087;48.982;12.064;2023-09-19T06:05:54;1.00;;;0.90;;
12052;SDS011;6087;48.982;12.064;2023-09-19T06:08:22;2.63;;;1.30;;
12052;SDS011;6087;48.982;12.064;2023-09-19T06:10:54;1.98;;;1.10;;
12052;SDS011;6087;48.982;12.064;2023-09-19T06:13:23;2.35;;;1.10;;
12052;SDS011;6087;48.982;12.064;2023-09-19T06:15:53;1.08;;;0.93;;
12052;SDS011;6087;48.982;12.064;2023-09-19T06:18:21;1.52;;;0.73;;
12052;SDS011;6087;48.982;12.064;2023-09-19T06:20:51;1.60;;;0.98;;
12052;SDS011;6087;48.982;12.064;2023-09-19T06:23:20;1.95;;;1.02;;
12052;SDS011;6087;48.982;12.064;2023-09-19T06:25:47;2.58;;;0.88;;
12052;SDS011;6087;48.982;12.064;2023-09-19T06:28:14;1.10;;;0.90;;
12052;SDS011;6087;48.982;12.064;2023-09-19T06:30:45;0.80;;;0.80;;
12052;SDS011;6087;48.982;12.064;2023-09-19T06:33:14;1.58;;;0.90;;
12052;SDS011;6087;48.982;12.064;2023-09-19T06:35:42;1.73;;;0.73;;
12052;SDS011;6087;48.982;12.064;2023-09-19T06:38:09;1.52;;;1.00;;
12052;SDS011;6087;48.982;12.064;2023-09-19T06:40:38;2.28;;;0.82;;
12052;SDS011;6087;48.982;12.064;2023-09-19T06:43:08;1.95;;;0.90;;
12052;SDS011;6087;48.982;12.064;2023-09-19T06:45:36;2.17;;;1.13;;
12052;SDS011;6087;48.982;12.064;2023-09-19T06:48:03;2.28;;;1.33;;
12052;SDS011;6087;48.982;12.064;2023-09-19T06:50:33;1.27;;;1.00;;
12052;SDS011;6087;48.982;12.064;2023-09-19T06:53:01;2.95;;;0.80;;
12052;SDS011;6087;48.982;12.064;2023-09-19T06:55:28;3.25;;;1.17;;
12052;SDS011;6087;48.982;12.064;2023-09-19T06:57:56;1.95;;;0.88;;
12052;SDS011;6087;48.982;12.064;2023-09-19T07:00:26;1.20;;;1.10;;
12052;SDS011;6087;48.982;12.064;2023-09-19T07:02:56;1.05;;;0.90;;
12052;SDS011;6087;48.982;12.064;2023-09-19T07:05:29;0.73;;;0.73;;
12052;SDS011;6087;48.982;12.064;2023-09-19T07:07:58;1.52;;;1.08;;
12052;SDS011;6087;48.982;12.064;2023-09-19T07:10:25;2.95;;;0.98;;
12052;SDS011;6087;48.982;12.064;2023-09-19T07:12:56;1.35;;;0.90;;
12052;SDS011;6087;48.982;12.064;2023-09-19T07:15:24;3.08;;;0.75;;
12052;SDS011;6087;48.982;12.064;2023-09-19T07:17:54;1.38;;;0.90;;
12052;SDS011;6087;48.982;12.064;2023-09-19T07:20:22;1.55;;;1.17;;
12052;SDS011;6087;48.982;12.064;2023-09-19T07:22:54;1.42;;;0.98;;
12052;SDS011;6087;48.982;12.064;2023-09-19T07:25:26;1.23;;;1.05;;
12052;SDS011;6087;48.982;12.064;2023-09-19T07:27:54;2.25;;;1.20;;
12052;SDS011;6087;48.982;12.064;2023-09-19T07:30:21;2.00;;;0.80;;
12052;SDS011;6087;48.982;12.064;2023-09-19T07:32:48;0.80;;;0.80;;
12052;SDS011;6087;48.982;12.064;2023-09-19T07:35:15;1.80;;;1.10;;
12052;SDS011;6087;48.982;12.064;2023-09-19T07:37:45;1.70;;;0.73;;
12052;SDS011;6087;48.982;12.064;2023-09-19T07:40:14;3.05;;;1.35;;
12052;SDS011;6087;48.982;12.064;2023-09-19T07:42:42;1.10;;;1.00;;
12052;SDS011;6087;48.982;12.064;2023-09-19T07:45:12;0.90;;;0.75;;
12052;SDS011;6087;48.982;12.064;2023-09-19T07:47:44;1.58;;;0.80;;
12052;SDS011;6087;48.982;12.064;2023-09-19T07:50:12;1.48;;;1.10;;
12052;SDS011;6087;48.982;12.064;2023-09-19T07:52:39;1.27;;;0.93;;
12052;SDS011;6087;48.982;12.064;2023-09-19T07:55:06;1.70;;;1.30;;
12052;SDS011;6087;48.982;12.064;2023-09-19T07:57:36;1.33;;;0.90;;
12052;SDS011;6087;48.982;12.064;2023-09-19T08:00:05;3.20;;;1.00;;
12052;SDS011;6087;48.982;12.064;2023-09-19T08:02:34;1.30;;;0.93;;
12052;SDS011;6087;48.982;12.064;2023-09-19T08:05:03;1.38;;;1.10;;
12052;SDS011;6087;48.982;12.064;2023-09-19T08:07:31;2.63;;;1.55;;
12052;SDS011;6087;48.982;12.064;2023-09-19T08:09:58;4.03;;;0.90;;
12052;SDS011;6087;48.982;12.064;2023-09-19T08:12:25;0.70;;;0.70;;
12052;SDS011;6087;48.982;12.064;2023-09-19T08:14:52;0.80;;;0.65;;
12052;SDS011;6087;48.982;12.064;2023-09-19T08:17:21;1.30;;;0.82;;
12052;SDS011;6087;48.982;12.064;2023-09-19T08:19:48;1.50;;;0.90;;
12052;SDS011;6087;48.982;12.064;2023-09-19T08:22:17;1.17;;;0.85;;
12052;SDS011;6087;48.982;12.064;2023-09-19T08:24:45;1.73;;;1.00;;
12052;SDS011;6087;48.982;12.064;2023-09-19T08:27:13;1.45;;;1.35;;
12052;SDS011;6087;48.982;12.064;2023-09-19T08:29:43;3.83;;;0.75;;
12052;SDS011;6087;48.982;12.064;2023-09-19T08:32:11;1.40;;;0.93;;
12052;SDS011;6087;48.982;12.064;2023-09-19T08:34:40;1.05;;;0.85;;
12052;SDS011;6087;48.982;12.064;2023-09-19T08:37:07;1.80;;;1.05;;
12052;SDS011;6087;48.982;12.064;2023-09-19T08:39:35;1.73;;;0.70;;
12052;SDS011;6087;48.982;12.064;2023-09-19T08:42:03;2.63;;;0.90;;
12052;SDS011;6087;48.982;12.064;2023-09-19T08:44:30;0.80;;;0.80;;
12052;SDS011;6087;48.982;12.064;2023-09-19T08:47:06;4.15;;;1.02;;
12052;SDS011;6087;48.982;12.064;2023-09-19T08:49:38;0.73;;;0.73;;
12052;SDS011;6087;48.982;12.064;2023-09-19T08:52:16;0.82;;;0.80;;
12052;SDS011;6087;48.982;12.064;2023-09-19T08:54:48;1.25;;;0.75;;
12052;SDS011;6087;48.982;12.064;2023-09-19T08:57:18;0.75;;;0.73;;
12052;SDS011;6087;48.982;12.064;2023-09-19T08:59:47;0.68;;;0.63;;
12052;SDS011;6087;48.982;12.064;2023-09-19T09:02:15;0.80;;;0.80;;
12052;SDS011;6087;48.982;12.064;2023-09-19T09:04:45;1.42;;;1.00;;
12052;SDS011;6087;48.982;12.064;2023-09-19T09:07:14;1.27;;;0.93;;
12052;SDS011;6087;48.982;12.064;2023-09-19T09:09:41;1.10;;;1.00;;
12052;SDS011;6087;48.982;12.064;2023-09-19T09:12:10;1.17;;;0.88;;
12052;SDS011;6087;48.982;12.064;2023-09-19T09:14:38;0.65;;;0.60;;
12052;SDS011;6087;48.982;12.064;2023-09-19T09:17:06;0.63;;;0.63;;
12052;SDS011;6087;48.982;12.064;2023-09-19T09:19:34;0.68;;;0.68;;
12052;SDS011;6087;48.982;12.064;2023-09-19T09:22:07;6.07;;;1.45;;
12052;SDS011;6087;48.982;12.064;2023-09-19T09:24:35;0.70;;;0.70;;
12052;SDS011;6087;48.982;12.064;2023-09-19T09:27:04;1.15;;;0.73;;
12052;SDS011;6087;48.982;12.064;2023-09-19T09:29:43;2.40;;;0.95;;
12052;SDS011;6087;48.982;12.064;2023-09-19T09:32:18;1.00;;;0.70;;
12052;SDS011;6087;48.982;12.064;2023-09-19T09:34:46;1.15;;;0.93;;
12052;SDS011;6087;48.982;12.064;2023-09-19T09:37:16;3.42;;;0.88;;
12052;SDS011;6087;48.982;12.064;2023-09-19T09:39:54;2.20;;;0.70;;
12052;SDS011;6087;48.982;12.064;2023-09-19T09:42:29;1.83;;;0.70;;
12052;SDS011;6087;48.982;12.064;2023-09-19T09:45:12;1.10;;;1.00;;
12052;SDS011;6087;48.982;12.064;2023-09-19T09:47:41;1.17;;;0.75;;
12052;SDS011;6087;48.982;12.064;2023-09-19T09:50:22;0.93;;;0.60;;
12052;SDS011;6087;48.982;12.064;2023-09-19T09:55:59;0.95;;;0.73;;
12052;SDS011;6087;48.982;12.064;2023-09-19T09:58:30;3.17;;;0.98;;
12052;SDS011;6087;48.982;12.064;2023-09-19T10:00:58;2.33;;;0.80;;
12052;SDS011;6087;48.982;12.064;2023-09-19T10:03:32;1.42;;;0.77;;
12052;SDS011;6087;48.982;12.064;2023-09-19T10:06:04;2.22;;;0.80;;
12052;SDS011;6087;48.982;12.064;2023-09-19T10:09:04;1.60;;;0.77;;
12052;SDS011;6087;48.982;12.064;2023-09-19T10:11:40;1.17;;;0.80;;
12052;SDS011;6087;48.982;12.064;2023-09-19T10:14:09;1.55;;;1.23;;
12052;SDS011;6087;48.982;12.064;2023-09-19T10:16:40;0.68;;;0.68;;
12052;SDS011;6087;48.982;12.064;2023-09-19T10:19:11;1.23;;;0.90;;
12052;SDS011;6087;48.982;12.064;2023-09-19T10:21:42;2.78;;;0.93;;
12052;SDS011;6087;48.982;12.064;2023-09-19T10:24:12;0.90;;;0.90;;
12052;SDS011;6087;48.982;12.064;2023-09-19T10:26:45;2.35;;;0.95;;
12052;SDS011;6087;48.982;12.064;2023-09-19T10:29:15;2.83;;;0.95;;
12052;SDS011;6087;48.982;12.064;2023-09-19T10:31:45;1.70;;;1.10;;
12052;SDS011;6087;48.982;12.064;2023-09-19T10:34:14;1.60;;;0.90;;
12052;SDS011;6087;48.982;12.064;2023-09-19T10:36:44;2.53;;;1.20;;
12052;SDS011;6087;48.982;12.064;2023-09-19T10:39:14;0.73;;;0.73;;
12052;SDS011;6087;48.982;12.064;2023-09-19T10:41:47;0.80;;;0.80;;
12052;SDS011;6087;48.982;12.064;2023-09-19T10:44:24;1.27;;;1.05;;
12052;SDS011;6087;48.982;12.064;2023-09-19T10:46:51;1.25;;;0.80;;
12052;SDS011;6087;48.982;12.064;2023-09-19T10:49:19;1.10;;;0.90;;
12052;SDS011;6087;48.982;12.064;2023-09-19T10:51:47;1.50;;;1.17;;
12052;SDS011;6087;48.982;12.064;2023-09-19T10:54:18;1.08;;;0.98;;
12052;SDS011;6087;48.982;12.064;2023-09-19T10:56:51;1.02;;;0.93;;
12052;SDS011;6087;48.982;12.064;2023-09-19T10:59:22;1.73;;;1.00;;
12052;SDS011;6087;48.982;12.064;2023-09-19T11:01:49;4.80;;;1.00;;
12052;SDS011;6087;48.982;12.064;2023-09-19T11:04:21;1.25;;;1.00;;
12052;SDS011;6087;48.982;12.064;2023-09-19T11:06:59;1.13;;;1.02;;
12052;SDS011;6087;48.982;12.064;2023-09-19T11:09:45;1.75;;;1.00;;
12052;SDS011;6087;48.982;12.064;2023-09-19T11:24:29;1.17;;;0.90;;
12052;SDS011;6087;48.982;12.064;2023-09-19T11:27:10;1.48;;;1.27;;
12052;SDS011;6087;48.982;12.064;2023-09-19T11:29:39;1.50;;;0.90;;
12052;SDS011;6087;48.982;12.064;2023-09-19T11:32:06;2.70;;;1.23;;
12052;SDS011;6087;48.982;12.064;2023-09-19T11:34:38;1.35;;;1.10;;
12052;SDS011;6087;48.982;12.064;2023-09-19T11:40:40;2.22;;;1.00;;
12052;SDS011;6087;48.982;12.064;2023-09-19T11:43:30;2.15;;;1.10;;
12052;SDS011;6087;48.982;12.064;2023-09-19T11:46:08;1.67;;;1.17;;
12052;SDS011;6087;48.982;12.064;2023-09-19T11:48:37;1.35;;;1.15;;
12052;SDS011;6087;48.982;12.064;2023-09-19T11:51:13;0.93;;;0.90;;
12052;SDS011;6087;48.982;12.064;2023-09-19T11:53:45;1.88;;;1.13;;
12052;SDS011;6087;48.982;12.064;2023-09-19T11:56:14;1.08;;;0.98;;
12052;SDS011;6087;48.982;12.064;2023-09-19T11:58:46;1.50;;;1.40;;
12052;SDS011;6087;48.982;12.064;2023-09-19T12:01:21;0.98;;;0.80;;
12052;SDS011;6087;48.982;12.064;2023-09-19T12:03:52;1.27;;;1.00;;
12052;SDS011;6087;48.982;12.064;2023-09-19T12:06:22;2.33;;;0.82;;
12052;SDS011;6087;48.982;12.064;2023-09-19T12:08:49;1.02;;;0.70;;
12052;SDS011;6087;48.982;12.064;2023-09-19T12:11:19;2.35;;;0.80;;
12052;SDS011;6087;48.982;12.064;2023-09-19T12:13:49;2.50;;;1.02;;
12052;SDS011;6087;48.982;12.064;2023-09-19T12:16:19;0.93;;;0.93;;
12052;SDS011;6087;48.982;12.064;2023-09-19T12:18:49;1.70;;;0.68;;
12052;SDS011;6087;48.982;12.064;2023-09-19T12:21:25;0.82;;;0.82;;
12052;SDS011;6087;48.982;12.064;2023-09-19T12:24:05;1.38;;;0.70;;
12052;SDS011;6087;48.982;12.064;2023-09-19T12:26:41;1.30;;;0.60;;
12052;SDS011;6087;48.982;12.064;2023-09-19T12:29:15;1.10;;;1.00;;
12052;SDS011;6087;48.982;12.064;2023-09-19T12:31:47;1.13;;;0.90;;
12052;SDS011;6087;48.982;12.064;2023-09-19T12:34:22;1.10;;;0.77;;
12052;SDS011;6087;48.982;12.064;2023-09-19T12:37:05;0.73;;;0.73;;
12052;SDS011;6087;48.982;12.064;2023-09-19T12:39:37;0.70;;;0.70;;
12052;SDS011;6087;48.982;12.064;2023-09-19T12:42:08;1.08;;;0.90;;
12052;SDS011;6087;48.982;12.064;2023-09-19T12:44:42;0.95;;;0.70;;
12052;SDS011;6087;48.982;12.064;2023-09-19T12:47:11;0.95;;;0.73;;
12052;SDS011;6087;48.982;12.064;2023-09-19T12:52:40;0.63;;;0.63;;
12052;SDS011;6087;48.982;12.064;2023-09-19T12:55:19;0.60;;;0.60;;
12052;SDS011;6087;48.982;12.064;2023-09-19T12:57:57;0.93;;;0.63;;
12052;SDS011;6087;48.982;12.064;2023-09-19T13:00:34;2.17;;;1.15;;
12052;SDS011;6087;48.982;12.064;2023-09-19T13:03:09;1.05;;;0.70;;
12052;SDS011;6087;48.982;12.064;2023-09-19T13:08:30;0.85;;;0.60;;
12052;SDS011;6087;48.982;12.064;2023-09-19T13:11:04;0.80;;;0.68;;
12052;SDS011;6087;48.982;12.064;2023-09-19T13:13:37;1.05;;;0.63;;
12052;SDS011;6087;48.982;12.064;2023-09-19T13:16:07;1.08;;;0.82;;
12052;SDS011;6087;48.982;12.064;2023-09-19T13:18:44;0.55;;;0.55;;
12052;SDS011;6087;48.982;12.064;2023-09-19T13:21:12;0.95;;;0.65;;
12052;SDS011;6087;48.982;12.064;2023-09-19T13:23:50;1.23;;;0.70;;
12052;SDS011;6087;48.982;12.064;2023-09-19T13:26:18;1.45;;;0.90;;
12052;SDS011;6087;48.982;12.064;2023-09-19T13:28:45;1.77;;;0.85;;
12052;SDS011;6087;48.982;12.064;2023-09-19T13:31:15;1.05;;;0.82;;
12052;SDS011;6087;48.982;12.064;2023-09-19T13:33:43;0.60;;;0.60;;
12052;SDS011;6087;48.982;12.064;2023-09-19T13:36:10;1.65;;;0.70;;
12052;SDS011;6087;48.982;12.064;2023-09-19T13:38:38;2.08;;;0.98;;
12052;SDS011;6087;48.982;12.064;2023-09-19T13:41:05;1.42;;;0.73;;
12052;SDS011;6087;48.982;12.064;2023-09-19T13:43:32;1.38;;;1.00;;
12052;SDS011;6087;48.982;12.064;2023-09-19T13:45:59;1.05;;;0.65;;
12052;SDS011;6087;48.982;12.064;2023-09-19T13:48:32;1.00;;;0.82;;
12052;SDS011;6087;48.982;12.064;2023-09-19T13:51:00;2.70;;;0.85;;
12052;SDS011;6087;48.982;12.064;2023-09-19T13:53:28;2.22;;;0.95;;
12052;SDS011;6087;48.982;12.064;2023-09-19T13:55:55;2.10;;;0.80;;
12052;SDS011;6087;48.982;12.064;2023-09-19T13:58:26;1.27;;;0.80;;
12052;SDS011;6087;48.982;12.064;2023-09-19T14:00:56;1.08;;;0.95;;
12052;SDS011;6087;48.982;12.064;2023-09-19T14:03:25;1.42;;;0.82;;
12052;SDS011;6087;48.982;12.064;2023-09-19T14:05:54;1.90;;;1.05;;
12052;SDS011;6087;48.982;12.064;2023-09-19T14:08:21;1.10;;;1.00;;
12052;SDS011;6087;48.982;12.064;2023-09-19T14:10:49;1.27;;;0.82;;
12052;SDS011;6087;48.982;12.064;2023-09-19T14:13:16;1.00;;;0.88;;
12052;SDS011;6087;48.982;12.064;2023-09-19T14:15:45;3.08;;;2.17;;
12052;SDS011;6087;48.982;12.064;2023-09-19T14:18:11;0.93;;;0.70;;
12052;SDS011;6087;48.982;12.064;2023-09-19T14:20:39;1.63;;;0.80;;
12052;SDS011;6087;48.982;12.064;2023-09-19T14:23:08;3.15;;;1.17;;
12052;SDS011;6087;48.982;12.064;2023-09-19T14:25:35;0.70;;;0.70;;
12052;SDS011;6087;48.982;12.064;2023-09-19T14:28:03;0.60;;;0.60;;
12052;SDS011;6087;48.982;12.064;2023-09-19T14:30:32;0.70;;;0.70;;
12052;SDS011;6087;48.982;12.064;2023-09-19T14:32:59;0.75;;;0.75;;
12052;SDS011;6087;48.982;12.064;2023-09-19T14:35:26;1.33;;;0.82;;
12052;SDS011;6087;48.982;12.064;2023-09-19T14:37:53;0.77;;;0.65;;
12052;SDS011;6087;48.982;12.064;2023-09-19T14:40:22;0.73;;;0.70;;
12052;SDS011;6087;48.982;12.064;2023-09-19T14:42:49;0.75;;;0.75;;
12052;SDS011;6087;48.982;12.064;2023-09-19T14:45:15;2.00;;;1.00;;
12052;SDS011;6087;48.982;12.064;2023-09-19T14:47:43;2.00;;;0.88;;
12052;SDS011;6087;48.982;12.064;2023-09-19T14:50:12;1.48;;;0.93;;
12052;SDS011;6087;48.982;12.064;2023-09-19T14:52:40;0.85;;;0.60;;
12052;SDS011;6087;48.982;12.064;2023-09-19T14:55:07;2.35;;;1.13;;
12052;SDS011;6087;48.982;12.064;2023-09-19T14:57:42;1.20;;;0.88;;
12052;SDS011;6087;48.982;12.064;2023-09-19T15:00:11;1.13;;;0.82;;
12052;SDS011;6087;48.982;12.064;2023-09-19T15:02:38;2.58;;;0.93;;
12052;SDS011;6087;48.982;12.064;2023-09-19T15:05:06;1.27;;;1.10;;
12052;SDS011;6087;48.982;12.064;2023-09-19T15:07:34;0.88;;;0.82;;
12052;SDS011;6087;48.982;12.064;2023-09-19T15:10:03;1.17;;;1.08;;
12052;SDS011;6087;48.982;12.064;2023-09-19T15:12:32;0.70;;;0.70;;
12052;SDS011;6087;48.982;12.064;2023-09-19T15:15:01;1.17;;;0.70;;
12052;SDS011;6087;48.982;12.064;2023-09-19T15:17:30;1.95;;;0.82;;
12052;SDS011;6087;48.982;12.064;2023-09-19T15:19:57;2.20;;;0.90;;
12052;SDS011;6087;48.982;12.064;2023-09-19T15:22:24;1.20;;;0.95;;
12052;SDS011;6087;48.982;12.064;2023-09-19T15:24:51;2.85;;;0.93;;
12052;SDS011;6087;48.982;12.064;2023-09-19T15:27:18;1.35;;;0.80;;
12052;SDS011;6087;48.982;12.064;2023-09-19T15:29:45;1.15;;;1.00;;
12052;SDS011;6087;48.982;12.064;2023-09-19T15:32:14;0.93;;;0.80;;
12052;SDS011;6087;48.982;12.064;2023-09-19T15:34:40;0.70;;;0.70;;